sensor_id;sensor_type;location;lat;lon;timestamp;pressure;altitude;pressure_sealevel;temperature;humidity
9721;BME280;4899;42.644;23.366;2023-03-25T00:01:32;93971.78;;;8.78;100.00
9721;BME280;4899;42.644;23.366;2023-03-25T00:03:59;93959.41;;;8.72;100.00
9721;BME280;4899;42.644;23.366;2023-03-25T00:06:26;93974.34;;;8.78;100.00
9721;BME280;4899;42.644;23.366;2023-03-25T00:08:53;93968.31;;;8.74;100.00
9721;BME280;4899;42.644;23.366;2023-03-25T00:11:19;93967.88;;;8.72;100.00
9721;BME280;4899;42.644;23.366;2023-03-25T00:13:44;93978.13;;;8.72;100.00
9721;BME280;4899;42.644;23.366;2023-03-25T00:16:12;93981.09;;;8.57;100.00
9721;BME280;4899;42.644;23.366;2023-03-25T00:18:38;93970.53;;;8.50;100.00
9721;BME280;4899;42.644;23.366;2023-03-25T00:21:04;93959.81;;;8.39;100.00
9721;BME280;4899;42.644;23.366;2023-03-25T00:23:35;93969.91;;;8.36;100.00
9721;BME280;4899;42.644;23.366;2023-03-25T00:26:01;93964.56;;;8.23;100.00
9721;BME280;4899;42.644;23.366;2023-03-25T00:28:29;93965.63;;;8.22;100.00
9721;BME280;4899;42.644;23.366;2023-03-25T00:31:00;93945.09;;;8.14;100.00
9721;BME280;4899;42.644;23.366;2023-03-25T00:33:27;93952.53;;;8.24;100.00
9721;BME280;4899;42.644;23.366;2023-03-25T00:35:53;93955.84;;;8.24;100.00
9721;BME280;4899;42.644;23.366;2023-03-25T00:38:31;93948.59;;;8.26;100.00
9721;BME280;4899;42.644;23.366;2023-03-25T00:41:15;93947.72;;;8.31;100.00
9721;BME280;4899;42.644;23.366;2023-03-25T00:43:48;93947.13;;;8.34;100.00
9721;BME280;4899;42.644;23.366;2023-03-25T00:46:14;93939.25;;;8.30;100.00
9721;BME280;4899;42.644;23.366;2023-03-25T00:48:41;93953.28;;;8.33;100.00
9721;BME280;4899;42.644;23.366;2023-03-25T00:51:08;93945.00;;;8.27;100.00
9721;BME280;4899;42.644;23.366;2023-03-25T00:53:37;93946.34;;;8.25;100.00
9721;BME280;4899;42.644;23.366;2023-03-25T00:56:03;93943.19;;;8.28;100.00
9721;BME280;4899;42.644;23.366;2023-03-25T00:58:29;93938.66;;;8.25;100.00
9721;BME280;4899;42.644;23.366;2023-03-25T01:00:55;93952.53;;;8.32;100.00
9721;BME280;4899;42.644;23.366;2023-03-25T01:03:24;93947.59;;;8.36;100.00
9721;BME280;4899;42.644;23.366;2023-03-25T01:05:51;93940.94;;;8.35;100.00
9721;BME280;4899;42.644;23.366;2023-03-25T01:08:19;93921.78;;;8.32;100.00
9721;BME280;4899;42.644;23.366;2023-03-25T01:10:50;93917.28;;;8.38;100.00
9721;BME280;4899;42.644;23.366;2023-03-25T01:13:17;93925.41;;;8.31;100.00
9721;BME280;4899;42.644;23.366;2023-03-25T01:15:42;93932.03;;;8.32;100.00
9721;BME280;4899;42.644;23.366;2023-03-25T01:18:07;93922.38;;;8.29;100.00
9721;BME280;4899;42.644;23.366;2023-03-25T01:20:33;93916.19;;;8.30;100.00
9721;BME280;4899;42.644;23.366;2023-03-25T01:22:58;93907.63;;;8.26;100.00
9721;BME280;4899;42.644;23.366;2023-03-25T01:25:24;93911.53;;;8.32;100.00
9721;BME280;4899;42.644;23.366;2023-03-25T01:27:50;93908.38;;;8.27;100.00
9721;BME280;4899;42.644;23.366;2023-03-25T01:30:15;93915.75;;;8.28;100.00
9721;BME280;4899;42.644;23.366;2023-03-25T01:32:41;93901.59;;;8.22;100.00
9721;BME280;4899;42.644;23.366;2023-03-25T01:35:06;93898.56;;;8.20;100.00
9721;BME280;4899;42.644;23.366;2023-03-25T01:37:32;93894.63;;;8.14;100.00
9721;BME280;4899;42.644;23.366;2023-03-25T01:40:01;93885.41;;;8.05;100.00
9721;BME280;4899;42.644;23.366;2023-03-25T01:42:29;93891.91;;;8.02;100.00
9721;BME280;4899;42.644;23.366;2023-03-25T01:45:27;93887.22;;;8.13;100.00
9721;BME280;4899;42.644;23.366;2023-03-25T01:48:00;93882.72;;;8.10;100.00
9721;BME280;4899;42.644;23.366;2023-03-25T01:50:28;93888.88;;;8.00;100.00
9721;BME280;4899;42.644;23.366;2023-03-25T01:52:57;93880.75;;;7.98;100.00
9721;BME280;4899;42.644;23.366;2023-03-25T01:55:25;93875.59;;;7.89;100.00
9721;BME280;4899;42.644;23.366;2023-03-25T01:57:53;93878.72;;;7.78;100.00
9721;BME280;4899;42.644;23.366;2023-03-25T02:00:21;93894.69;;;7.75;100.00
9721;BME280;4899;42.644;23.366;2023-03-25T02:02:47;93892.22;;;7.61;100.00
9721;BME280;4899;42.644;23.366;2023-03-25T02:05:20;93885.84;;;7.50;100.00
9721;BME280;4899;42.644;23.366;2023-03-25T02:07:49;93877.97;;;7.37;100.00
9721;BME280;4899;42.644;23.366;2023-03-25T02:10:15;93876.63;;;7.40;100.00
9721;BME280;4899;42.644;23.366;2023-03-25T02:12:41;93875.53;;;7.32;100.00
9721;BME280;4899;42.644;23.366;2023-03-25T02:15:10;93882.75;;;7.30;100.00
9721;BME280;4899;42.644;23.366;2023-03-25T02:20:48;93878.69;;;7.29;100.00
9721;BME280;4899;42.644;23.366;2023-03-25T02:40:17;93870.00;;;7.08;100.00
9721;BME280;4899;42.644;23.366;2023-03-25T02:42:37;93876.78;;;7.13;100.00
9721;BME280;4899;42.644;23.366;2023-03-25T02:45:13;93865.81;;;7.12;100.00
9721;BME280;4899;42.644;23.366;2023-03-25T02:47:46;93862.16;;;7.04;100.00
9721;BME280;4899;42.644;23.366;2023-03-25T02:50:17;93869.25;;;7.07;100.00
9721;BME280;4899;42.644;23.366;2023-03-25T02:52:48;93861.44;;;7.13;100.00
9721;BME280;4899;42.644;23.366;2023-03-25T02:55:16;93857.06;;;7.13;100.00
9721;BME280;4899;42.644;23.366;2023-03-25T02:57:44;93857.38;;;7.12;100.00
9721;BME280;4899;42.644;23.366;2023-03-25T03:00:14;93856.31;;;7.13;100.00
9721;BME280;4899;42.644;23.366;2023-03-25T03:02:54;93854.81;;;7.12;100.00
9721;BME280;4899;42.644;23.366;2023-03-25T03:05:30;93854.34;;;7.09;100.00
9721;BME280;4899;42.644;23.366;2023-03-25T03:21:39;93847.28;;;6.84;100.00
9721;BME280;4899;42.644;23.366;2023-03-25T03:24:33;93842.31;;;6.79;100.00
9721;BME280;4899;42.644;23.366;2023-03-25T03:32:41;93848.81;;;6.63;100.00
9721;BME280;4899;42.644;23.366;2023-03-25T03:35:17;93858.09;;;6.59;100.00
9721;BME280;4899;42.644;23.366;2023-03-25T03:37:47;93864.25;;;6.58;100.00
9721;BME280;4899;42.644;23.366;2023-03-25T03:40:18;93858.81;;;6.51;100.00
9721;BME280;4899;42.644;23.366;2023-03-25T03:42:57;93849.75;;;6.44;100.00
9721;BME280;4899;42.644;23.366;2023-03-25T03:45:30;93856.63;;;6.44;100.00
9721;BME280;4899;42.644;23.366;2023-03-25T03:48:03;93853.63;;;6.42;100.00
9721;BME280;4899;42.644;23.366;2023-03-25T03:50:36;93845.72;;;6.30;100.00
9721;BME280;4899;42.644;23.366;2023-03-25T03:53:10;93866.69;;;6.40;100.00
9721;BME280;4899;42.644;23.366;2023-03-25T03:55:42;93859.13;;;6.35;100.00
9721;BME280;4899;42.644;23.366;2023-03-25T03:58:25;93852.97;;;6.36;100.00
9721;BME280;4899;42.644;23.366;2023-03-25T04:06:41;93855.69;;;6.40;100.00
9721;BME280;4899;42.644;23.366;2023-03-25T04:12:26;93873.44;;;6.59;100.00
9721;BME280;4899;42.644;23.366;2023-03-25T04:14:55;93860.81;;;6.62;100.00
9721;BME280;4899;42.644;23.366;2023-03-25T04:17:24;93867.31;;;6.68;100.00
9721;BME280;4899;42.644;23.366;2023-03-25T04:19:49;93864.97;;;6.72;100.00
9721;BME280;4899;42.644;23.366;2023-03-25T04:22:18;93856.25;;;6.73;100.00
9721;BME280;4899;42.644;23.366;2023-03-25T04:24:44;93862.16;;;6.82;100.00
9721;BME280;4899;42.644;23.366;2023-03-25T04:27:15;93852.69;;;6.83;100.00
9721;BME280;4899;42.644;23.366;2023-03-25T04:29:40;93869.03;;;6.95;100.00
9721;BME280;4899;42.644;23.366;2023-03-25T04:32:10;93872.50;;;6.99;100.00
9721;BME280;4899;42.644;23.366;2023-03-25T04:34:36;93816.72;;;6.70;100.00
9721;BME280;4899;42.644;23.366;2023-03-25T04:37:03;93850.72;;;7.02;100.00
9721;BME280;4899;42.644;23.366;2023-03-25T04:39:28;93861.44;;;7.13;100.00
9721;BME280;4899;42.644;23.366;2023-03-25T04:41:56;93868.81;;;7.14;100.00
9721;BME280;4899;42.644;23.366;2023-03-25T04:44:22;93863.53;;;7.10;100.00
9721;BME280;4899;42.644;23.366;2023-03-25T04:46:50;93869.19;;;7.21;100.00
9721;BME280;4899;42.644;23.366;2023-03-25T04:49:18;93860.84;;;7.16;100.00
9721;BME280;4899;42.644;23.366;2023-03-25T04:51:46;93875.06;;;7.30;100.00
9721;BME280;4899;42.644;23.366;2023-03-25T04:54:14;93883.22;;;7.32;100.00
9721;BME280;4899;42.644;23.366;2023-03-25T04:56:39;93865.47;;;7.36;100.00
9721;BME280;4899;42.644;23.366;2023-03-25T04:59:05;93871.94;;;7.42;100.00
9721;BME280;4899;42.644;23.366;2023-03-25T05:01:30;93871.09;;;7.47;100.00
9721;BME280;4899;42.644;23.366;2023-03-25T05:03:58;93880.47;;;7.60;100.00
9721;BME280;4899;42.644;23.366;2023-03-25T05:06:38;93878.53;;;7.65;100.00
9721;BME280;4899;42.644;23.366;2023-03-25T05:09:05;93870.72;;;7.70;100.00
9721;BME280;4899;42.644;23.366;2023-03-25T05:11:32;93869.69;;;7.71;100.00
9721;BME280;4899;42.644;23.366;2023-03-25T05:13:58;93882.78;;;7.79;100.00
9721;BME280;4899;42.644;23.366;2023-03-25T05:16:24;93875.25;;;7.82;100.00
9721;BME280;4899;42.644;23.366;2023-03-25T05:18:51;93869.84;;;7.92;100.00
9721;BME280;4899;42.644;23.366;2023-03-25T05:21:16;93875.03;;;8.01;100.00
9721;BME280;4899;42.644;23.366;2023-03-25T05:23:42;93873.38;;;8.05;100.00
9721;BME280;4899;42.644;23.366;2023-03-25T05:26:08;93878.19;;;8.15;100.00
9721;BME280;4899;42.644;23.366;2023-03-25T05:28:34;93882.13;;;8.21;100.00
9721;BME280;4899;42.644;23.366;2023-03-25T05:31:00;93877.78;;;8.30;100.00
9721;BME280;4899;42.644;23.366;2023-03-25T05:33:26;93881.41;;;8.38;100.00
9721;BME280;4899;42.644;23.366;2023-03-25T05:35:51;93866.66;;;8.44;100.00
9721;BME280;4899;42.644;23.366;2023-03-25T05:38:17;93865.75;;;8.57;100.00
9721;BME280;4899;42.644;23.366;2023-03-25T05:40:44;93872.09;;;8.68;100.00
9721;BME280;4899;42.644;23.366;2023-03-25T05:43:11;93877.66;;;8.79;100.00
9721;BME280;4899;42.644;23.366;2023-03-25T05:45:36;93870.56;;;8.84;100.00
9721;BME280;4899;42.644;23.366;2023-03-25T05:48:02;93835.44;;;8.76;100.00
9721;BME280;4899;42.644;23.366;2023-03-25T05:50:29;93876.41;;;9.11;100.00
9721;BME280;4899;42.644;23.366;2023-03-25T05:52:55;93875.63;;;9.19;100.00
9721;BME280;4899;42.644;23.366;2023-03-25T05:55:22;93876.81;;;9.30;100.00
9721;BME280;4899;42.644;23.366;2023-03-25T05:57:48;93883.41;;;9.48;100.00
9721;BME280;4899;42.644;23.366;2023-03-25T06:00:16;93880.78;;;9.57;100.00
9721;BME280;4899;42.644;23.366;2023-03-25T06:02:47;93849.28;;;9.39;100.00
9721;BME280;4899;42.644;23.366;2023-03-25T06:05:14;93886.00;;;9.78;100.00
9721;BME280;4899;42.644;23.366;2023-03-25T06:07:41;93884.56;;;9.89;100.00
9721;BME280;4899;42.644;23.366;2023-03-25T06:10:11;93884.06;;;10.04;100.00
9721;BME280;4899;42.644;23.366;2023-03-25T06:12:38;93878.69;;;10.18;100.00
9721;BME280;4899;42.644;23.366;2023-03-25T06:15:06;93879.97;;;10.33;100.00
9721;BME280;4899;42.644;23.366;2023-03-25T06:17:32;93880.69;;;10.42;100.00
9721;BME280;4899;42.644;23.366;2023-03-25T06:19:59;93882.25;;;10.55;100.00
9721;BME280;4899;42.644;23.366;2023-03-25T06:22:37;93867.81;;;10.63;100.00
9721;BME280;4899;42.644;23.366;2023-03-25T06:25:03;93875.28;;;10.76;100.00
9721;BME280;4899;42.644;23.366;2023-03-25T06:27:28;93875.31;;;10.89;100.00
9721;BME280;4899;42.644;23.366;2023-03-25T06:29:54;93860.28;;;10.78;100.00
9721;BME280;4899;42.644;23.366;2023-03-25T06:32:19;93880.41;;;10.97;100.00
9721;BME280;4899;42.644;23.366;2023-03-25T06:34:45;93884.06;;;11.08;100.00
9721;BME280;4899;42.644;23.366;2023-03-25T06:37:10;93881.75;;;11.16;100.00
9721;BME280;4899;42.644;23.366;2023-03-25T06:39:36;93891.09;;;11.32;100.00
9721;BME280;4899;42.644;23.366;2023-03-25T06:42:03;93889.94;;;11.42;100.00
9721;BME280;4899;42.644;23.366;2023-03-25T06:44:29;93882.56;;;11.53;100.00
9721;BME280;4899;42.644;23.366;2023-03-25T06:46:54;93884.28;;;11.61;100.00
9721;BME280;4899;42.644;23.366;2023-03-25T06:49:20;93893.09;;;11.72;100.00
9721;BME280;4899;42.644;23.366;2023-03-25T06:51:46;93886.00;;;11.69;100.00
9721;BME280;4899;42.644;23.366;2023-03-25T06:54:11;93889.25;;;11.78;100.00
9721;BME280;4899;42.644;23.366;2023-03-25T06:56:38;93895.06;;;11.87;100.00
9721;BME280;4899;42.644;23.366;2023-03-25T06:59:04;93894.63;;;11.97;100.00
9721;BME280;4899;42.644;23.366;2023-03-25T07:01:30;93902.25;;;11.94;100.00
9721;BME280;4899;42.644;23.366;2023-03-25T07:03:55;93900.44;;;12.07;100.00
9721;BME280;4899;42.644;23.366;2023-03-25T07:06:22;93896.53;;;12.13;100.00
9721;BME280;4899;42.644;23.366;2023-03-25T07:08:48;93897.84;;;12.19;100.00
9721;BME280;4899;42.644;23.366;2023-03-25T07:11:15;93860.06;;;11.98;100.00
9721;BME280;4899;42.644;23.366;2023-03-25T07:13:41;93893.75;;;12.30;100.00
9721;BME280;4899;42.644;23.366;2023-03-25T07:16:07;93891.16;;;12.42;100.00
9721;BME280;4899;42.644;23.366;2023-03-25T07:18:33;93885.53;;;12.52;100.00
9721;BME280;4899;42.644;23.366;2023-03-25T07:20:59;93889.47;;;12.62;100.00
9721;BME280;4899;42.644;23.366;2023-03-25T07:23:24;93890.63;;;12.77;99.96
9721;BME280;4899;42.644;23.366;2023-03-25T07:25:50;93889.53;;;12.90;98.85
9721;BME280;4899;42.644;23.366;2023-03-25T07:28:16;93892.69;;;12.99;98.07
9721;BME280;4899;42.644;23.366;2023-03-25T07:30:41;93889.03;;;13.00;96.50
9721;BME280;4899;42.644;23.366;2023-03-25T07:33:06;93884.13;;;13.11;95.08
9721;BME280;4899;42.644;23.366;2023-03-25T07:35:32;93898.94;;;13.26;93.46
9721;BME280;4899;42.644;23.366;2023-03-25T07:37:58;93888.28;;;13.28;92.46
9721;BME280;4899;42.644;23.366;2023-03-25T07:40:24;93882.19;;;13.36;91.57
9721;BME280;4899;42.644;23.366;2023-03-25T07:42:49;93891.81;;;13.51;90.75
9721;BME280;4899;42.644;23.366;2023-03-25T07:45:15;93886.25;;;13.65;89.56
9721;BME280;4899;42.644;23.366;2023-03-25T07:47:40;93878.25;;;13.70;90.24
9721;BME280;4899;42.644;23.366;2023-03-25T07:50:06;93886.97;;;13.81;89.05
9721;BME280;4899;42.644;23.366;2023-03-25T07:52:32;93884.38;;;13.97;87.06
9721;BME280;4899;42.644;23.366;2023-03-25T07:54:57;93870.78;;;14.00;85.10
9721;BME280;4899;42.644;23.366;2023-03-25T07:57:24;93882.69;;;14.20;85.42
9721;BME280;4899;42.644;23.366;2023-03-25T07:59:50;93874.81;;;14.32;84.54
9721;BME280;4899;42.644;23.366;2023-03-25T08:02:16;93869.13;;;14.42;82.05
9721;BME280;4899;42.644;23.366;2023-03-25T08:04:42;93860.16;;;14.56;80.74
9721;BME280;4899;42.644;23.366;2023-03-25T08:07:08;93866.50;;;14.77;79.52
9721;BME280;4899;42.644;23.366;2023-03-25T08:09:33;93861.53;;;14.88;78.27
9721;BME280;4899;42.644;23.366;2023-03-25T08:11:59;93856.13;;;14.97;76.91
9721;BME280;4899;42.644;23.366;2023-03-25T08:14:24;93862.72;;;15.14;77.57
9721;BME280;4899;42.644;23.366;2023-03-25T08:16:50;93855.19;;;15.28;76.89
9721;BME280;4899;42.644;23.366;2023-03-25T08:19:15;93860.72;;;15.49;74.50
9721;BME280;4899;42.644;23.366;2023-03-25T08:21:41;93860.69;;;15.68;72.73
9721;BME280;4899;42.644;23.366;2023-03-25T08:24:06;93852.84;;;15.88;71.73
9721;BME280;4899;42.644;23.366;2023-03-25T08:26:33;93859.81;;;16.10;70.51
9721;BME280;4899;42.644;23.366;2023-03-25T08:29:01;93857.47;;;16.28;66.97
9721;BME280;4899;42.644;23.366;2023-03-25T08:31:29;93861.75;;;16.43;65.68
9721;BME280;4899;42.644;23.366;2023-03-25T08:33:59;93859.91;;;16.44;64.61
9721;BME280;4899;42.644;23.366;2023-03-25T08:36:25;93853.28;;;16.50;64.46
9721;BME280;4899;42.644;23.366;2023-03-25T08:38:52;93851.16;;;16.59;64.16
9721;BME280;4899;42.644;23.366;2023-03-25T08:41:18;93856.22;;;16.75;63.54
9721;BME280;4899;42.644;23.366;2023-03-25T08:43:44;93846.72;;;16.89;62.67
9721;BME280;4899;42.644;23.366;2023-03-25T08:46:09;93832.06;;;17.08;62.24
9721;BME280;4899;42.644;23.366;2023-03-25T08:48:35;93835.91;;;17.21;61.97
9721;BME280;4899;42.644;23.366;2023-03-25T08:51:02;93842.03;;;17.43;60.90
9721;BME280;4899;42.644;23.366;2023-03-25T08:53:27;93836.84;;;17.43;59.29
9721;BME280;4899;42.644;23.366;2023-03-25T08:55:54;93839.13;;;17.51;58.97
9721;BME280;4899;42.644;23.366;2023-03-25T08:58:20;93837.69;;;17.58;58.06
9721;BME280;4899;42.644;23.366;2023-03-25T09:00:47;93834.34;;;17.57;57.55
9721;BME280;4899;42.644;23.366;2023-03-25T09:03:13;93831.59;;;17.36;57.21
9721;BME280;4899;42.644;23.366;2023-03-25T09:05:39;93821.03;;;17.18;57.04
9721;BME280;4899;42.644;23.366;2023-03-25T09:08:05;93816.59;;;17.22;56.80
9721;BME280;4899;42.644;23.366;2023-03-25T09:10:31;93823.50;;;17.48;56.75
9721;BME280;4899;42.644;23.366;2023-03-25T09:12:57;93807.34;;;17.69;56.34
9721;BME280;4899;42.644;23.366;2023-03-25T09:15:22;93822.44;;;18.04;55.46
9721;BME280;4899;42.644;23.366;2023-03-25T09:17:48;93813.59;;;18.19;54.97
9721;BME280;4899;42.644;23.366;2023-03-25T09:20:13;93813.56;;;18.12;54.50
9721;BME280;4899;42.644;23.366;2023-03-25T09:22:39;93813.63;;;18.26;54.12
9721;BME280;4899;42.644;23.366;2023-03-25T09:25:06;93816.38;;;18.58;53.97
9721;BME280;4899;42.644;23.366;2023-03-25T09:27:32;93802.31;;;18.73;53.39
9721;BME280;4899;42.644;23.366;2023-03-25T09:29:57;93806.41;;;18.82;53.05
9721;BME280;4899;42.644;23.366;2023-03-25T09:32:23;93805.66;;;18.78;52.75
9721;BME280;4899;42.644;23.366;2023-03-25T09:34:49;93800.78;;;18.62;52.67
9721;BME280;4899;42.644;23.366;2023-03-25T09:37:16;93791.41;;;18.47;52.70
9721;BME280;4899;42.644;23.366;2023-03-25T09:39:42;93794.00;;;18.43;52.84
9721;BME280;4899;42.644;23.366;2023-03-25T09:47:31;93802.38;;;19.02;52.06
9721;BME280;4899;42.644;23.366;2023-03-25T09:50:05;93793.47;;;19.46;50.59
9721;BME280;4899;42.644;23.366;2023-03-25T09:52:37;93801.69;;;19.76;50.85
9721;BME280;4899;42.644;23.366;2023-03-25T09:55:11;93794.97;;;19.89;49.74
9721;BME280;4899;42.644;23.366;2023-03-25T09:57:46;93783.41;;;19.87;47.82
9721;BME280;4899;42.644;23.366;2023-03-25T10:00:23;93790.84;;;20.10;47.57
9721;BME280;4899;42.644;23.366;2023-03-25T10:03:04;93784.09;;;20.16;47.67
9721;BME280;4899;42.644;23.366;2023-03-25T10:08:23;93782.94;;;20.24;46.00
9721;BME280;4899;42.644;23.366;2023-03-25T10:17:05;93778.06;;;20.44;44.59
9721;BME280;4899;42.644;23.366;2023-03-25T10:22:37;93752.47;;;20.80;45.59
9721;BME280;4899;42.644;23.366;2023-03-25T10:25:15;93756.13;;;20.93;44.24
9721;BME280;4899;42.644;23.366;2023-03-25T10:27:45;93750.41;;;21.12;44.95
9721;BME280;4899;42.644;23.366;2023-03-25T10:30:22;93740.31;;;21.14;42.64
9721;BME280;4899;42.644;23.366;2023-03-25T10:32:53;93749.44;;;21.44;43.89
9721;BME280;4899;42.644;23.366;2023-03-25T10:37:46;93742.50;;;21.68;42.95
9721;BME280;4899;42.644;23.366;2023-03-25T10:40:35;93734.53;;;21.82;39.54
9721;BME280;4899;42.644;23.366;2023-03-25T10:45:54;93727.78;;;21.81;40.97
9721;BME280;4899;42.644;23.366;2023-03-25T10:48:25;93728.81;;;21.91;41.09
9721;BME280;4899;42.644;23.366;2023-03-25T10:51:00;93724.84;;;22.13;39.97
9721;BME280;4899;42.644;23.366;2023-03-25T10:53:27;93723.09;;;22.64;40.61
9721;BME280;4899;42.644;23.366;2023-03-25T10:56:06;93697.97;;;22.93;37.31
9721;BME280;4899;42.644;23.366;2023-03-25T10:58:33;93735.25;;;22.78;39.93
9721;BME280;4899;42.644;23.366;2023-03-25T11:01:10;93712.47;;;22.75;38.76
9721;BME280;4899;42.644;23.366;2023-03-25T11:03:38;93728.13;;;22.78;39.51
9721;BME280;4899;42.644;23.366;2023-03-25T11:06:05;93715.34;;;22.57;39.27
9721;BME280;4899;42.644;23.366;2023-03-25T11:08:31;93714.91;;;22.62;39.42
9721;BME280;4899;42.644;23.366;2023-03-25T11:10:56;93710.13;;;22.80;38.93
9721;BME280;4899;42.644;23.366;2023-03-25T11:13:27;93699.53;;;22.91;38.98
9721;BME280;4899;42.644;23.366;2023-03-25T11:15:56;93694.34;;;22.87;38.59
9721;BME280;4899;42.644;23.366;2023-03-25T11:18:34;93676.47;;;23.02;37.40
9721;BME280;4899;42.644;23.366;2023-03-25T11:21:08;93686.56;;;23.27;37.66
9721;BME280;4899;42.644;23.366;2023-03-25T11:23:37;93689.31;;;23.43;38.18
9721;BME280;4899;42.644;23.366;2023-03-25T11:26:42;93666.09;;;23.65;36.12
9721;BME280;4899;42.644;23.366;2023-03-25T11:29:18;93673.00;;;24.15;35.98
9721;BME280;4899;42.644;23.366;2023-03-25T11:31:56;93668.75;;;24.01;36.03
9721;BME280;4899;42.644;23.366;2023-03-25T11:34:22;93683.41;;;23.82;37.33
9721;BME280;4899;42.644;23.366;2023-03-25T11:37:17;93661.09;;;24.10;35.36
9721;BME280;4899;42.644;23.366;2023-03-25T11:39:49;93654.78;;;25.41;36.35
9721;BME280;4899;42.644;23.366;2023-03-25T11:44:54;93640.44;;;25.30;34.62
9721;BME280;4899;42.644;23.366;2023-03-25T11:47:35;93632.78;;;26.06;33.50
9721;BME280;4899;42.644;23.366;2023-03-25T11:50:03;93638.19;;;26.79;33.82
9721;BME280;4899;42.644;23.366;2023-03-25T11:52:43;93600.63;;;28.09;30.74
9721;BME280;4899;42.644;23.366;2023-03-25T11:57:41;93582.03;;;30.09;31.42
9721;BME280;4899;42.644;23.366;2023-03-25T12:00:38;93540.03;;;30.88;26.97
9721;BME280;4899;42.644;23.366;2023-03-25T12:03:17;93564.22;;;30.00;27.21
9721;BME280;4899;42.644;23.366;2023-03-25T12:05:57;93529.78;;;29.73;27.79
9721;BME280;4899;42.644;23.366;2023-03-25T12:08:23;93577.41;;;30.27;30.43
9721;BME280;4899;42.644;23.366;2023-03-25T12:10:54;93551.63;;;29.58;28.43
9721;BME280;4899;42.644;23.366;2023-03-25T12:19:07;93575.81;;;27.19;29.99
9721;BME280;4899;42.644;23.366;2023-03-25T12:22:12;93612.94;;;25.60;30.97
9721;BME280;4899;42.644;23.366;2023-03-25T12:25:11;93618.72;;;24.93;32.15
9721;BME280;4899;42.644;23.366;2023-03-25T12:30:47;93654.63;;;23.75;33.29
9721;BME280;4899;42.644;23.366;2023-03-25T12:38:52;93671.34;;;22.68;35.10
9721;BME280;4899;42.644;23.366;2023-03-25T12:41:41;93663.34;;;22.52;34.65
9721;BME280;4899;42.644;23.366;2023-03-25T12:47:27;93637.13;;;22.52;34.58
9721;BME280;4899;42.644;23.366;2023-03-25T13:00:52;93631.81;;;21.67;35.90
9721;BME280;4899;42.644;23.366;2023-03-25T13:10:59;93610.66;;;21.51;36.26
9721;BME280;4899;42.644;23.366;2023-03-25T13:13:28;93610.09;;;21.36;36.53
9721;BME280;4899;42.644;23.366;2023-03-25T13:21:19;93622.69;;;20.59;37.49
9721;BME280;4899;42.644;23.366;2023-03-25T13:23:51;93601.50;;;20.43;37.51
9721;BME280;4899;42.644;23.366;2023-03-25T13:26:22;93598.94;;;20.28;37.85
9721;BME280;4899;42.644;23.366;2023-03-25T13:28:56;93604.19;;;20.25;38.30
9721;BME280;4899;42.644;23.366;2023-03-25T13:31:30;93595.31;;;20.15;38.69
9721;BME280;4899;42.644;23.366;2023-03-25T13:37:04;93607.03;;;19.82;39.57
9721;BME280;4899;42.644;23.366;2023-03-25T13:42:37;93611.22;;;19.51;40.23
9721;BME280;4899;42.644;23.366;2023-03-25T13:45:13;93620.97;;;19.36;40.98
9721;BME280;4899;42.644;23.366;2023-03-25T13:47:42;93637.03;;;19.10;42.08
9721;BME280;4899;42.644;23.366;2023-03-25T13:50:27;93623.25;;;18.78;43.71
9721;BME280;4899;42.644;23.366;2023-03-25T13:53:01;93624.75;;;18.71;43.44
9721;BME280;4899;42.644;23.366;2023-03-25T13:55:42;93653.75;;;18.56;43.75
9721;BME280;4899;42.644;23.366;2023-03-25T14:01:00;93661.63;;;17.65;49.36
9721;BME280;4899;42.644;23.366;2023-03-25T14:14:58;93654.75;;;15.69;78.62
9721;BME280;4899;42.644;23.366;2023-03-25T14:17:25;93649.66;;;15.50;79.85
9721;BME280;4899;42.644;23.366;2023-03-25T14:19:53;93651.28;;;15.32;80.88
9721;BME280;4899;42.644;23.366;2023-03-25T14:22:26;93667.91;;;15.04;95.56
9721;BME280;4899;42.644;23.366;2023-03-25T14:24:52;93657.16;;;15.02;91.64
9721;BME280;4899;42.644;23.366;2023-03-25T14:34:49;93654.81;;;14.71;100.00
9721;BME280;4899;42.644;23.366;2023-03-25T14:37:22;93660.34;;;14.69;100.00
9721;BME280;4899;42.644;23.366;2023-03-25T14:39:50;93654.19;;;14.55;100.00
9721;BME280;4899;42.644;23.366;2023-03-25T14:42:42;93646.91;;;14.41;100.00
9721;BME280;4899;42.644;23.366;2023-03-25T14:47:59;93613.72;;;14.24;100.00
9721;BME280;4899;42.644;23.366;2023-03-25T14:52:57;93574.28;;;14.30;100.00
9721;BME280;4899;42.644;23.366;2023-03-25T14:58:00;93538.81;;;14.54;100.00
9721;BME280;4899;42.644;23.366;2023-03-25T15:00:34;93547.69;;;14.79;100.00
9721;BME280;4899;42.644;23.366;2023-03-25T15:03:11;93549.50;;;15.05;100.00
9721;BME280;4899;42.644;23.366;2023-03-25T15:05:39;93546.75;;;15.21;100.00
9721;BME280;4899;42.644;23.366;2023-03-25T15:10:42;93555.13;;;15.41;100.00
9721;BME280;4899;42.644;23.366;2023-03-25T15:13:17;93548.53;;;15.47;100.00
9721;BME280;4899;42.644;23.366;2023-03-25T15:18:10;93548.94;;;15.49;100.00
9721;BME280;4899;42.644;23.366;2023-03-25T15:20:36;93543.00;;;15.48;100.00
9721;BME280;4899;42.644;23.366;2023-03-25T15:25:45;93545.34;;;15.27;100.00
9721;BME280;4899;42.644;23.366;2023-03-25T15:28:29;93549.03;;;15.26;100.00
9721;BME280;4899;42.644;23.366;2023-03-25T15:39:23;93542.31;;;15.21;100.00
9721;BME280;4899;42.644;23.366;2023-03-25T15:44:41;93524.47;;;15.13;100.00
9721;BME280;4899;42.644;23.366;2023-03-25T15:47:43;93525.22;;;15.13;100.00
9721;BME280;4899;42.644;23.366;2023-03-25T15:55:41;93529.84;;;15.00;100.00
9721;BME280;4899;42.644;23.366;2023-03-25T15:58:20;93526.91;;;15.02;100.00
9721;BME280;4899;42.644;23.366;2023-03-25T16:00:50;93517.59;;;14.97;100.00
9721;BME280;4899;42.644;23.366;2023-03-25T16:03:18;93522.06;;;15.00;100.00
9721;BME280;4899;42.644;23.366;2023-03-25T16:05:48;93524.66;;;15.00;100.00
9721;BME280;4899;42.644;23.366;2023-03-25T16:08:29;93525.03;;;14.99;100.00
9721;BME280;4899;42.644;23.366;2023-03-25T16:10:56;93531.03;;;15.06;100.00
9721;BME280;4899;42.644;23.366;2023-03-25T16:13:22;93530.81;;;15.52;100.00
9721;BME280;4899;42.644;23.366;2023-03-25T16:15:57;93530.81;;;16.26;100.00
9721;BME280;4899;42.644;23.366;2023-03-25T16:18:23;93530.41;;;16.72;95.28
9721;BME280;4899;42.644;23.366;2023-03-25T16:20:58;93529.06;;;16.92;91.95